createdAt,value
2022-10-23T00:00:33.949Z,4.20
2022-10-23T00:04:19.360Z,4.70
2022-10-23T00:08:01.476Z,4.10
2022-10-23T00:11:44.817Z,4.80
2022-10-23T00:15:27.549Z,4.65
2022-10-23T00:19:09.480Z,4.70
2022-10-23T00:22:51.612Z,4.78
2022-10-23T00:26:33.554Z,4.80
2022-10-23T00:30:15.451Z,4.18
2022-10-23T00:33:57.267Z,4.72
2022-10-23T00:37:39.255Z,3.90
2022-10-23T00:41:24.870Z,3.70
2022-10-23T00:45:23.983Z,4.43
2022-10-23T00:49:06.875Z,3.85
2022-10-23T00:52:52.187Z,4.05
2022-10-23T00:56:39.336Z,3.90
2022-10-23T01:00:31.587Z,3.42
2022-10-23T01:04:13.514Z,4.30
2022-10-23T01:08:02.076Z,5.28
2022-10-23T01:11:50.556Z,5.10
2022-10-23T01:16:13.629Z,5.13
2022-10-23T01:20:23.943Z,5.28
2022-10-23T01:24:34.475Z,5.28
2022-10-23T01:28:26.302Z,5.85
2022-10-23T01:32:34.255Z,4.97
2022-10-23T01:36:18.689Z,4.38
2022-10-23T01:40:05.424Z,6.00
2022-10-23T01:44:02.274Z,5.88
2022-10-23T01:47:45.752Z,6.03
2022-10-23T01:51:29.088Z,6.38
2022-10-23T01:55:13.003Z,5.57
2022-10-23T01:58:57.504Z,6.38
2022-10-23T02:02:43.324Z,5.03
2022-10-23T02:06:25.299Z,5.18
2022-10-23T02:10:09.278Z,5.07
2022-10-23T02:13:53.908Z,4.93
2022-10-23T02:17:50.067Z,4.45
2022-10-23T02:21:48.483Z,5.75
2022-10-23T02:26:11.797Z,6.05
2022-10-23T02:30:10.356Z,6.13
2022-10-23T02:33:52.240Z,6.00
2022-10-23T02:37:34.367Z,7.53
2022-10-23T02:41:39.196Z,6.43
2022-10-23T02:45:33.005Z,6.70
2022-10-23T02:49:20.810Z,7.45
2022-10-23T02:53:36.484Z,6.93
2022-10-23T02:57:29.993Z,7.83
2022-10-23T03:01:19.517Z,6.97
2022-10-23T03:05:03.256Z,6.85
2022-10-23T03:08:51.943Z,6.38
2022-10-23T03:12:33.964Z,5.85
2022-10-23T03:16:15.972Z,5.93
2022-10-23T03:19:57.843Z,5.15
2022-10-23T03:23:39.739Z,5.18
2022-10-23T03:27:21.650Z,5.38
2022-10-23T03:31:04.042Z,4.63
2022-10-23T03:34:45.853Z,4.03
2022-10-23T03:38:27.677Z,4.88
2022-10-23T03:42:09.524Z,4.75
2022-10-23T03:45:52.133Z,4.20
2022-10-23T03:49:34.020Z,3.85
2022-10-23T03:53:15.839Z,5.00
2022-10-23T03:56:57.987Z,4.38
2022-10-23T04:00:39.935Z,5.15
2022-10-23T04:04:21.759Z,5.03
2022-10-23T04:08:03.707Z,4.53
2022-10-23T04:11:45.652Z,5.32
2022-10-23T04:15:27.443Z,4.95
2022-10-23T04:19:09.303Z,4.43
2022-10-23T04:22:51.098Z,4.10
2022-10-23T04:26:32.917Z,4.45
2022-10-23T04:30:14.855Z,4.38
2022-10-23T04:33:56.891Z,5.05
2022-10-23T04:37:38.787Z,4.05
2022-10-23T04:41:20.603Z,4.20
2022-10-23T04:45:02.460Z,4.00
2022-10-23T04:48:44.354Z,3.75
2022-10-23T04:52:26.166Z,4.72
2022-10-23T04:56:08.227Z,4.03
2022-10-23T04:59:50.066Z,3.95
2022-10-23T05:03:31.900Z,4.25
2022-10-23T05:07:13.754Z,3.78
2022-10-23T05:10:55.605Z,4.13
2022-10-23T05:14:37.442Z,3.88
2022-10-23T05:18:26.578Z,3.83
2022-10-23T05:22:10.924Z,3.95
2022-10-23T05:25:53.030Z,4.15
2022-10-23T05:29:34.895Z,4.50
2022-10-23T05:33:17.222Z,4.28
2022-10-23T05:36:59.217Z,1.67
2022-10-23T05:40:41.082Z,1.23
2022-10-23T05:44:22.939Z,0.80
2022-10-23T05:48:11.002Z,0.40
2022-10-23T05:52:04.050Z,0.30
2022-10-23T05:55:45.892Z,0.55
2022-10-23T05:59:27.699Z,0.60
2022-10-23T06:03:09.490Z,0.60
2022-10-23T06:06:51.312Z,0.80
2022-10-23T06:10:33.135Z,0.80
2022-10-23T06:14:14.955Z,0.77
2022-10-23T06:18:01.250Z,0.98
2022-10-23T06:21:43.139Z,1.20
2022-10-23T06:25:24.976Z,1.15
2022-10-23T06:29:06.830Z,0.47
2022-10-23T06:32:48.691Z,0.95
2022-10-23T06:36:30.527Z,0.55
2022-10-23T06:40:12.464Z,0.45
2022-10-23T06:43:54.836Z,0.40
2022-10-23T06:47:36.656Z,0.52
2022-10-23T06:51:18.559Z,0.30
2022-10-23T06:55:00.351Z,0.63
2022-10-23T06:58:42.432Z,0.88
2022-10-23T07:02:24.279Z,0.40
2022-10-23T07:06:07.563Z,0.70
2022-10-23T07:09:49.451Z,0.82
2022-10-23T07:13:31.302Z,0.90
2022-10-23T07:17:13.090Z,1.23
2022-10-23T07:20:58.630Z,0.90
2022-10-23T07:24:40.852Z,0.80
2022-10-23T07:28:22.769Z,0.93
2022-10-23T07:32:04.888Z,1.15
2022-10-23T07:35:47.441Z,0.85
2022-10-23T07:39:29.231Z,0.73
2022-10-23T07:43:11.396Z,0.90
2022-10-23T07:46:53.265Z,0.77
2022-10-23T07:50:38.664Z,0.77
2022-10-23T07:54:20.532Z,1.08
2022-10-23T07:58:02.460Z,1.08
2022-10-23T08:01:45.613Z,0.60
2022-10-23T08:05:27.543Z,2.90
2022-10-23T08:09:09.378Z,1.30
2022-10-23T08:12:51.187Z,6.55
2022-10-23T08:16:35.112Z,2.65
2022-10-23T08:20:17.229Z,0.40
2022-10-23T08:24:00.605Z,0.52
2022-10-23T08:27:42.670Z,0.30
2022-10-23T08:31:24.919Z,0.30
2022-10-23T08:35:07.032Z,0.50
2022-10-23T08:38:49.178Z,0.30
2022-10-23T08:42:31.244Z,1.00
2022-10-23T08:46:17.813Z,0.98
2022-10-23T08:50:06.056Z,0.40
2022-10-23T08:53:59.738Z,0.40
2022-10-23T08:57:50.119Z,0.65
2022-10-23T09:01:40.609Z,0.40
2022-10-23T09:05:50.383Z,0.30
2022-10-23T09:09:38.377Z,0.40
2022-10-23T09:13:58.311Z,0.80
2022-10-23T09:17:42.736Z,0.52
2022-10-23T09:21:30.002Z,0.50
2022-10-23T09:25:35.457Z,0.40
2022-10-23T09:29:27.498Z,0.50
2022-10-23T09:33:24.412Z,0.50
2022-10-23T09:37:30.756Z,0.57
2022-10-23T09:41:40.477Z,1.10
2022-10-23T09:45:29.686Z,3.15
2022-10-23T09:49:34.573Z,1.10
2022-10-23T09:53:30.827Z,1.35
2022-10-23T09:57:33.902Z,0.47
2022-10-23T10:01:28.136Z,0.50
2022-10-23T10:05:22.325Z,0.70
2022-10-23T10:09:17.166Z,0.55
2022-10-23T10:13:06.007Z,0.67
2022-10-23T10:16:52.795Z,0.70
2022-10-23T10:21:05.591Z,0.60
2022-10-23T10:24:54.115Z,0.90
2022-10-23T10:29:00.476Z,0.75
2022-10-23T10:32:48.611Z,0.65
2022-10-23T10:36:47.167Z,0.40
2022-10-23T10:40:36.287Z,0.60
2022-10-23T10:44:39.790Z,0.60
2022-10-23T10:48:40.083Z,0.32
2022-10-23T10:52:27.760Z,0.30
2022-10-23T10:56:15.007Z,0.28
2022-10-23T11:00:13.671Z,0.63
2022-10-23T11:04:11.595Z,2.08
2022-10-23T11:08:07.289Z,1.02
2022-10-23T11:11:49.366Z,0.38
2022-10-23T11:15:42.995Z,1.50
2022-10-23T11:19:29.348Z,1.20
2022-10-23T11:23:29.466Z,0.50
2022-10-23T11:27:49.458Z,0.52
2022-10-23T11:31:46.557Z,0.40
2022-10-23T11:35:53.466Z,0.15
2022-10-23T11:39:39.122Z,0.57
2022-10-23T11:47:28.365Z,0.40
2022-10-23T11:51:30.251Z,0.35
2022-10-23T11:55:24.535Z,0.55
2022-10-23T11:59:29.325Z,0.80
2022-10-23T12:03:22.666Z,0.50
2022-10-23T12:07:21.586Z,0.88
2022-10-23T12:11:03.538Z,0.65
2022-10-23T12:14:49.595Z,0.40
2022-10-23T12:18:31.786Z,0.43
2022-10-23T12:22:14.043Z,0.43
2022-10-23T12:26:16.685Z,0.80
2022-10-23T12:30:22.502Z,1.20
2022-10-23T12:34:22.961Z,4.03
2022-10-23T12:38:25.367Z,1.58
2022-10-23T12:42:18.695Z,1.55
2022-10-23T12:46:12.035Z,0.95
2022-10-23T12:49:55.996Z,0.82
2022-10-23T12:53:38.059Z,0.50
2022-10-23T12:57:28.233Z,0.60
2022-10-23T13:01:26.822Z,0.50
2022-10-23T13:05:13.346Z,0.40
2022-10-23T13:08:56.083Z,0.68
2022-10-23T13:12:40.311Z,0.70
2022-10-23T13:16:26.199Z,0.38
2022-10-23T13:20:23.733Z,0.73
2022-10-23T13:24:05.780Z,0.43
2022-10-23T13:27:47.860Z,0.50
2022-10-23T13:31:32.558Z,0.50
2022-10-23T13:35:22.881Z,0.80
2022-10-23T13:39:10.475Z,0.57
2022-10-23T13:42:55.049Z,0.50
2022-10-23T13:46:36.905Z,0.60
2022-10-23T13:50:19.679Z,1.00
2022-10-23T13:54:01.646Z,0.90
2022-10-23T13:57:43.720Z,0.75
2022-10-23T14:01:30.385Z,2.40
2022-10-23T14:05:13.081Z,1.63
2022-10-23T14:08:54.916Z,0.80
2022-10-23T14:12:44.209Z,0.57
2022-10-23T14:16:27.186Z,0.60
2022-10-23T14:20:09.774Z,0.43
2022-10-23T14:23:53.566Z,1.17
2022-10-23T14:27:35.450Z,0.70
2022-10-23T14:31:18.353Z,0.70
2022-10-23T14:35:03.861Z,0.43
2022-10-23T14:38:45.750Z,0.70
2022-10-23T14:42:33.071Z,0.82
2022-10-23T14:46:18.709Z,0.57
2022-10-23T14:50:00.669Z,0.40
2022-10-23T14:53:42.578Z,0.50
2022-10-23T14:57:24.528Z,0.50
2022-10-23T15:01:06.598Z,0.80
2022-10-23T15:04:48.485Z,0.90
2022-10-23T15:08:31.000Z,0.50
2022-10-23T15:12:12.883Z,0.70
2022-10-23T15:16:09.146Z,0.65
2022-10-23T15:19:50.976Z,0.50
2022-10-23T15:23:34.824Z,0.63
2022-10-23T15:27:16.687Z,0.77
2022-10-23T15:30:58.608Z,0.80
2022-10-23T15:34:42.777Z,0.75
2022-10-23T15:38:24.862Z,0.95
2022-10-23T15:42:07.249Z,1.38
2022-10-23T15:45:49.036Z,1.27
2022-10-23T15:49:30.976Z,0.70
2022-10-23T15:53:15.912Z,1.42
2022-10-23T15:56:58.278Z,3.60
2022-10-23T16:00:40.367Z,4.75
2022-10-23T16:04:22.496Z,4.10
2022-10-23T16:08:11.739Z,2.70
2022-10-23T16:11:53.606Z,2.55
2022-10-23T16:15:36.771Z,2.63
2022-10-23T16:19:18.797Z,3.38
2022-10-23T16:23:00.629Z,1.33
2022-10-23T16:26:42.707Z,2.38
2022-10-23T16:30:24.538Z,1.98
2022-10-23T16:34:06.928Z,1.10
2022-10-23T16:37:49.241Z,1.85
2022-10-23T16:41:31.174Z,1.92
2022-10-23T16:45:12.951Z,1.77
2022-10-23T16:48:54.802Z,1.48
2022-10-23T16:52:36.635Z,1.80
2022-10-23T16:56:23.231Z,1.02
2022-10-23T17:00:06.633Z,1.27
2022-10-23T17:03:50.336Z,1.25
2022-10-23T17:07:32.946Z,0.88
2022-10-23T17:11:15.618Z,1.20
2022-10-23T17:14:57.496Z,1.50
2022-10-23T17:18:43.743Z,1.10
2022-10-23T17:22:25.983Z,0.77
2022-10-23T17:26:09.887Z,1.00
2022-10-23T17:29:51.711Z,1.10
2022-10-23T17:33:33.583Z,0.98
2022-10-23T17:37:15.446Z,0.80
2022-10-23T17:40:57.258Z,0.77
2022-10-23T17:44:39.078Z,0.55
2022-10-23T17:48:21.018Z,0.85
2022-10-23T17:52:02.994Z,1.50
2022-10-23T17:55:44.779Z,0.60
2022-10-23T17:59:26.591Z,0.50
2022-10-23T18:03:08.407Z,1.13
2022-10-23T18:06:53.484Z,0.65
2022-10-23T18:10:36.243Z,0.90
2022-10-23T18:14:19.978Z,1.92
2022-10-23T18:18:07.734Z,1.10
2022-10-23T18:21:50.156Z,0.93
2022-10-23T18:25:32.025Z,1.25
2022-10-23T18:29:14.925Z,1.30
2022-10-23T18:32:58.181Z,2.08
2022-10-23T18:36:41.155Z,1.80
2022-10-23T18:40:25.592Z,1.90
2022-10-23T18:44:14.117Z,2.65
2022-10-23T18:47:55.957Z,3.53
2022-10-23T18:51:38.347Z,4.00
2022-10-23T18:55:20.542Z,2.65
2022-10-23T18:59:04.810Z,2.38
2022-10-23T19:02:52.033Z,2.08
2022-10-23T19:06:36.235Z,1.60
2022-10-23T19:10:20.639Z,1.50
2022-10-23T19:14:02.803Z,1.40
2022-10-23T19:17:44.651Z,1.67
2022-10-23T19:21:32.534Z,1.52
2022-10-23T19:25:21.498Z,1.45
2022-10-23T19:29:04.882Z,1.48
2022-10-23T19:32:48.064Z,1.27
2022-10-23T19:36:30.025Z,1.08
2022-10-23T19:40:13.915Z,3.00
2022-10-23T19:43:55.765Z,3.28
2022-10-23T19:47:37.971Z,3.10
2022-10-23T19:51:19.825Z,2.60
2022-10-23T19:55:03.282Z,2.60
2022-10-23T19:58:45.124Z,2.45
2022-10-23T20:02:27.333Z,1.42
2022-10-23T20:06:11.666Z,1.73
2022-10-23T20:09:53.724Z,1.23
2022-10-23T20:13:36.017Z,1.52
2022-10-23T20:17:17.876Z,1.25
2022-10-23T20:21:02.780Z,1.35
2022-10-23T20:24:44.875Z,1.45
2022-10-23T20:28:26.652Z,1.27
2022-10-23T20:32:08.708Z,1.92
2022-10-23T20:35:50.594Z,2.22
2022-10-23T20:39:35.612Z,1.58
2022-10-23T20:43:17.451Z,1.55
2022-10-23T20:46:59.378Z,1.73
2022-10-23T20:50:41.163Z,1.60
2022-10-23T20:54:25.583Z,3.05
2022-10-23T20:58:07.408Z,3.60
2022-10-23T21:01:52.859Z,3.40
2022-10-23T21:05:35.036Z,3.83
2022-10-23T21:09:16.853Z,3.20
2022-10-23T21:12:58.624Z,2.03
2022-10-23T21:16:44.431Z,2.63
2022-10-23T21:20:26.294Z,2.50
2022-10-23T21:24:13.230Z,2.42
2022-10-23T21:31:37.260Z,2.75
2022-10-23T21:35:19.059Z,2.90
2022-10-23T21:39:02.483Z,1.60
2022-10-23T21:42:44.298Z,1.80
2022-10-23T21:46:27.003Z,2.08
2022-10-23T21:50:09.199Z,1.65
2022-10-23T21:53:52.729Z,1.98
2022-10-23T21:57:34.671Z,1.67
2022-10-23T22:01:16.728Z,2.10
2022-10-23T22:04:58.721Z,1.98
2022-10-23T22:08:40.530Z,1.70
2022-10-23T22:12:22.396Z,2.20
2022-10-23T22:16:04.566Z,2.25
2022-10-23T22:19:46.422Z,2.15
2022-10-23T22:23:28.664Z,1.98
2022-10-23T22:27:10.518Z,1.80
2022-10-23T22:30:52.372Z,1.85
2022-10-23T22:34:51.812Z,1.20
2022-10-23T22:38:34.625Z,1.48
2022-10-23T22:42:16.672Z,1.20
2022-10-23T22:46:10.845Z,1.60
2022-10-23T22:49:52.643Z,1.35
2022-10-23T22:53:34.884Z,1.83
2022-10-23T22:57:16.713Z,1.98
2022-10-23T23:01:06.774Z,1.90
2022-10-23T23:04:48.610Z,2.42
2022-10-23T23:08:30.388Z,1.77
2022-10-23T23:12:13.870Z,1.60
2022-10-23T23:15:56.410Z,1.92
2022-10-23T23:19:38.680Z,2.55
2022-10-23T23:23:20.614Z,2.72
2022-10-23T23:27:02.533Z,2.65
2022-10-23T23:34:31.584Z,3.10
2022-10-23T23:38:13.435Z,2.63
2022-10-23T23:41:55.326Z,2.88
2022-10-23T23:45:37.114Z,3.03
2022-10-23T23:49:18.927Z,3.10
2022-10-23T23:53:00.740Z,2.45
2022-10-23T23:56:42.562Z,3.15
